Time;durP1;ratioP1;P1;durP2;ratioP2;P2;SDS_P1;SDS_P2;PMS_P1;PMS_P2;Temp;Humidity;BMP_temperature;BMP_pressure;BME280_temperature;BME280_humidity;BME280_pressure;Samples;Min_cycle;Max_cycle;Signal;HPM_P1;HPM_P2
2022/01/07 00:01:43;;;;;;;7.07;4.63;;;2.30;89.80;;;;;;941769;148;27487;-73
2022/01/07 00:04:09;;;;;;;7.90;5.63;;;2.30;90.00;;;;;;952274;148;27297;-73
2022/01/07 00:06:36;;;;;;;9.10;5.10;;;2.30;90.00;;;;;;943309;148;27864;-74
2022/01/07 00:09:02;;;;;;;7.90;5.07;;;2.30;90.00;;;;;;953562;148;27358;-74
2022/01/07 00:11:29;;;;;;;7.50;5.27;;;2.20;90.00;;;;;;950550;149;27346;-73
2022/01/07 00:13:56;;;;;;;8.93;5.57;;;2.30;90.10;;;;;;943551;148;27295;-73
2022/01/07 00:16:22;;;;;;;9.60;5.40;;;2.20;90.20;;;;;;937975;148;27458;-73
2022/01/07 00:18:49;;;;;;;9.73;5.13;;;2.20;90.20;;;;;;951413;148;27312;-73
2022/01/07 00:21:15;;;;;;;6.87;5.00;;;2.20;90.20;;;;;;939194;148;27339;-73
2022/01/07 00:23:45;;;;;;;5.83;4.70;;;2.20;90.20;;;;;;955885;148;27344;-73
2022/01/07 00:26:11;;;;;;;7.03;4.93;;;2.20;90.20;;;;;;951363;150;27337;-73
2022/01/07 00:28:38;;;;;;;6.43;4.53;;;2.20;90.30;;;;;;945109;147;27368;-73
2022/01/07 00:31:04;;;;;;;6.57;4.77;;;2.20;90.30;;;;;;947871;147;27374;-73
2022/01/07 00:33:31;;;;;;;6.90;5.20;;;2.20;90.30;;;;;;946574;149;27355;-73
2022/01/07 00:35:59;;;;;;;7.40;4.97;;;2.20;90.40;;;;;;948080;147;27369;-73
2022/01/07 00:38:24;;;;;;;7.90;5.10;;;2.20;90.40;;;;;;948974;147;27301;-74
2022/01/07 00:40:51;;;;;;;6.20;4.97;;;2.20;90.30;;;;;;952022;149;27273;-73
2022/01/07 00:43:17;;;;;;;8.17;4.87;;;2.20;90.40;;;;;;942305;147;27354;-73
2022/01/07 00:45:44;;;;;;;6.80;4.73;;;2.20;90.40;;;;;;950237;147;27336;-74
2022/01/07 00:48:11;;;;;;;10.03;5.10;;;2.20;90.40;;;;;;961425;147;27807;-73
2022/01/07 00:50:37;;;;;;;5.80;4.67;;;2.10;90.40;;;;;;946905;149;27847;-73
2022/01/07 00:53:04;;;;;;;8.17;5.07;;;2.10;90.40;;;;;;952114;147;27400;-73
2022/01/07 00:55:31;;;;;;;7.03;5.07;;;2.10;90.50;;;;;;963296;147;27432;-73
2022/01/07 00:57:57;;;;;;;6.30;4.63;;;2.10;90.50;;;;;;960097;147;27324;-73
2022/01/07 01:00:23;;;;;;;8.33;4.83;;;2.10;90.50;;;;;;946129;147;27359;-73
2022/01/07 01:02:50;;;;;;;5.77;5.10;;;2.10;90.60;;;;;;939095;149;27382;-73
2022/01/07 01:05:17;;;;;;;7.63;4.97;;;2.10;90.70;;;;;;943305;149;27324;-73
2022/01/07 01:07:43;;;;;;;7.17;5.47;;;2.10;90.80;;;;;;932408;149;27490;-73
2022/01/07 01:10:10;;;;;;;6.47;4.83;;;2.00;90.80;;;;;;947034;149;27318;-74
2022/01/07 01:12:36;;;;;;;6.90;4.60;;;2.10;90.90;;;;;;938319;152;27433;-73
2022/01/07 01:15:03;;;;;;;7.90;5.00;;;2.10;91.00;;;;;;938841;149;27381;-73
2022/01/07 01:17:32;;;;;;;7.43;4.97;;;2.10;91.10;;;;;;936788;149;28279;-73
2022/01/07 01:19:59;;;;;;;8.30;5.10;;;2.10;91.10;;;;;;944089;149;27345;-73
2022/01/07 01:22:25;;;;;;;7.53;4.77;;;2.10;91.10;;;;;;935267;149;27356;-73
2022/01/07 01:24:52;;;;;;;5.90;4.27;;;2.10;91.20;;;;;;939826;149;27259;-73
2022/01/07 01:27:19;;;;;;;7.37;4.83;;;2.20;91.20;;;;;;930342;152;27445;-73
2022/01/07 01:29:45;;;;;;;5.73;4.67;;;2.20;91.30;;;;;;941818;149;27341;-73
2022/01/07 01:32:12;;;;;;;8.33;4.87;;;2.20;91.30;;;;;;931933;149;27425;-73
2022/01/07 01:34:38;;;;;;;6.30;4.40;;;2.20;91.30;;;;;;950056;149;27367;-73
2022/01/07 01:37:05;;;;;;;10.97;5.17;;;2.20;91.30;;;;;;932668;148;27509;-73
2022/01/07 01:39:32;;;;;;;7.57;4.20;;;2.20;91.30;;;;;;937157;149;27480;-73
2022/01/07 01:41:58;;;;;;;5.27;4.20;;;2.20;91.40;;;;;;944019;149;27356;-73
2022/01/07 01:44:25;;;;;;;4.63;4.07;;;2.30;91.50;;;;;;934801;149;27364;-73
2022/01/07 01:46:51;;;;;;;7.07;4.97;;;2.30;91.50;;;;;;936378;149;27305;-73
2022/01/07 01:49:18;;;;;;;6.40;4.37;;;2.30;91.50;;;;;;943830;149;27467;-73
2022/01/07 01:51:44;;;;;;;7.07;4.57;;;2.30;91.50;;;;;;945103;149;27414;-73
2022/01/07 01:54:11;;;;;;;10.50;4.87;;;2.30;91.90;;;;;;937660;150;27815;-73
2022/01/07 01:56:38;;;;;;;9.47;4.43;;;2.40;91.60;;;;;;945437;149;27930;-74
2022/01/07 01:59:04;;;;;;;7.23;4.40;;;2.40;91.60;;;;;;939515;149;27425;-73
2022/01/07 02:01:31;;;;;;;5.80;3.93;;;2.40;91.60;;;;;;941723;149;27938;-73
2022/01/07 02:03:57;;;;;;;5.43;4.30;;;2.40;91.60;;;;;;948207;151;27659;-73
2022/01/07 02:06:24;;;;;;;6.87;4.80;;;2.40;91.60;;;;;;938203;151;27409;-73
2022/01/07 02:08:51;;;;;;;10.03;4.67;;;2.40;91.60;;;;;;941181;151;27356;-73
2022/01/07 02:11:17;;;;;;;9.13;4.80;;;2.50;91.60;;;;;;935333;151;27360;-73
2022/01/07 02:13:47;;;;;;;5.23;3.70;;;2.50;91.60;;;;;;937193;151;27287;-73
2022/01/07 02:16:10;;;;;;;9.30;4.27;;;2.50;91.60;;;;;;943036;150;27503;-73
2022/01/07 02:18:37;;;;;;;7.83;4.70;;;2.50;91.50;;;;;;938444;150;27425;-73
2022/01/07 02:21:03;;;;;;;6.47;4.80;;;2.50;91.60;;;;;;946372;150;27316;-73
2022/01/07 02:23:32;;;;;;;7.57;4.70;;;2.50;91.60;;;;;;938567;150;27277;-73
2022/01/07 02:25:57;;;;;;;5.77;4.10;;;2.60;91.70;;;;;;936472;150;27347;-73
2022/01/07 02:28:23;;;;;;;5.27;4.03;;;2.60;91.70;;;;;;944560;151;27402;-73
2022/01/07 02:30:50;;;;;;;6.37;4.10;;;2.60;91.60;;;;;;943689;151;27277;-73
2022/01/07 02:33:16;;;;;;;6.43;4.23;;;2.60;91.60;;;;;;939122;151;27355;-73
2022/01/07 02:35:45;;;;;;;4.23;3.37;;;2.60;91.70;;;;;;939176;151;27372;-73
2022/01/07 02:38:10;;;;;;;5.23;4.20;;;2.60;91.70;;;;;;941435;151;27379;-73
2022/01/07 02:40:36;;;;;;;5.30;4.80;;;2.60;91.70;;;;;;942201;150;27341;-73
2022/01/07 02:43:03;;;;;;;7.03;4.27;;;2.60;91.70;;;;;;945326;150;27452;-73
2022/01/07 02:45:29;;;;;;;6.27;4.40;;;2.60;91.70;;;;;;947210;150;27380;-73
2022/01/07 02:47:58;;;;;;;6.40;4.57;;;2.60;91.70;;;;;;941571;151;27349;-73
2022/01/07 02:50:22;;;;;;;6.33;4.10;;;2.60;91.80;;;;;;949899;147;27287;-73
2022/01/07 02:52:49;;;;;;;8.17;4.37;;;2.60;91.80;;;;;;935847;152;27475;-73
2022/01/07 02:55:16;;;;;;;5.67;3.93;;;2.60;91.80;;;;;;947992;150;27340;-73
2022/01/07 02:57:42;;;;;;;6.57;4.30;;;2.60;91.80;;;;;;953664;150;27343;-74
2022/01/07 03:00:09;;;;;;;6.13;4.53;;;2.60;91.90;;;;;;933662;152;27720;-74
2022/01/07 03:02:36;;;;;;;5.90;4.27;;;2.60;91.90;;;;;;946697;151;27369;-73
2022/01/07 03:05:05;;;;;;;5.10;4.07;;;2.60;92.00;;;;;;945437;148;27350;-74
2022/01/07 03:07:32;;;;;;;7.03;4.70;;;2.60;91.90;;;;;;943726;148;27362;-73
2022/01/07 03:09:58;;;;;;;6.37;4.27;;;2.60;91.90;;;;;;958988;148;27307;-73
2022/01/07 03:12:25;;;;;;;5.57;4.00;;;2.60;92.00;;;;;;946129;148;27341;-74
2022/01/07 03:14:51;;;;;;;7.37;4.20;;;2.60;92.00;;;;;;940413;148;27310;-74
2022/01/07 03:17:18;;;;;;;5.50;4.20;;;2.60;92.10;;;;;;948056;148;27394;-73
2022/01/07 03:19:45;;;;;;;6.27;4.80;;;2.60;92.10;;;;;;946071;148;27329;-73
2022/01/07 03:22:11;;;;;;;5.13;4.20;;;2.60;92.20;;;;;;943319;151;27664;-73
2022/01/07 03:24:38;;;;;;;6.33;4.47;;;2.70;92.30;;;;;;946249;148;27291;-74
2022/01/07 03:27:04;;;;;;;6.43;4.50;;;2.70;92.30;;;;;;944518;148;27332;-74
2022/01/07 03:29:31;;;;;;;7.00;4.60;;;2.70;92.30;;;;;;942925;148;27329;-73
2022/01/07 03:31:57;;;;;;;7.90;4.70;;;2.70;92.30;;;;;;942985;148;27379;-74
2022/01/07 03:34:24;;;;;;;6.53;4.70;;;2.70;92.30;;;;;;958474;148;27239;-74
2022/01/07 03:36:51;;;;;;;7.07;4.20;;;2.80;92.40;;;;;;942540;150;27441;-73
2022/01/07 03:39:17;;;;;;;5.70;4.37;;;2.80;92.40;;;;;;945326;148;27429;-71
2022/01/07 03:41:44;;;;;;;6.73;4.97;;;2.80;92.50;;;;;;938791;148;27461;-70
2022/01/07 03:44:13;;;;;;;7.03;4.83;;;2.80;92.50;;;;;;944648;150;27343;-70
2022/01/07 03:46:40;;;;;;;7.27;4.27;;;2.80;92.50;;;;;;945578;148;27346;-70
2022/01/07 03:49:06;;;;;;;10.63;5.13;;;2.90;92.50;;;;;;947203;150;27324;-70
2022/01/07 03:51:33;;;;;;;8.13;4.90;;;2.90;92.50;;;;;;936501;148;27341;-72
2022/01/07 03:53:59;;;;;;;5.97;4.17;;;2.90;92.60;;;;;;958979;148;27325;-70
2022/01/07 03:56:26;;;;;;;6.07;4.73;;;2.90;92.50;;;;;;938031;151;27787;-70
2022/01/07 03:58:53;;;;;;;7.37;4.70;;;2.90;92.50;;;;;;943874;148;27274;-70
2022/01/07 04:01:19;;;;;;;7.77;4.50;;;3.00;92.50;;;;;;962905;148;27288;-72
2022/01/07 04:03:46;;;;;;;7.53;4.40;;;3.00;92.50;;;;;;951616;148;27465;-70
2022/01/07 04:06:20;;;;;;;5.83;4.70;;;3.00;92.50;;;;;;933618;152;27431;-71
2022/01/07 04:08:42;;;;;;;6.60;4.63;;;3.00;92.50;;;;;;947731;150;27399;-70
2022/01/07 04:11:08;;;;;;;6.07;4.57;;;3.00;92.50;;;;;;948958;149;27435;-72
2022/01/07 04:13:38;;;;;;;5.87;4.13;;;3.00;92.50;;;;;;954296;147;27253;-70
2022/01/07 04:16:04;;;;;;;5.13;4.27;;;3.00;92.60;;;;;;946523;149;27358;-70
2022/01/07 04:18:31;;;;;;;5.27;4.10;;;3.00;92.60;;;;;;928184;153;27341;-72
2022/01/07 04:20:57;;;;;;;9.20;5.33;;;3.00;93.00;;;;;;937269;150;27319;-71
2022/01/07 04:23:24;;;;;;;7.20;3.93;;;3.10;92.80;;;;;;937783;152;27405;-72
2022/01/07 04:25:51;;;;;;;5.60;3.97;;;3.10;92.80;;;;;;956098;148;27327;-71
2022/01/07 04:28:17;;;;;;;5.73;3.87;;;3.10;92.80;;;;;;941101;149;27401;-71
2022/01/07 04:30:44;;;;;;;4.07;3.67;;;3.10;92.80;;;;;;937382;152;27358;-70
2022/01/07 04:33:13;;;;;;;5.43;4.37;;;3.20;92.90;;;;;;937301;151;27302;-72
2022/01/07 04:35:37;;;;;;;5.97;4.20;;;3.20;92.90;;;;;;935072;151;27345;-71
2022/01/07 04:38:03;;;;;;;6.07;4.30;;;3.30;93.00;;;;;;939221;152;27414;-70
2022/01/07 04:40:31;;;;;;;5.63;4.27;;;3.30;93.00;;;;;;941647;152;27414;-70
2022/01/07 04:42:57;;;;;;;5.83;4.10;;;3.30;93.00;;;;;;942877;152;27333;-72
2022/01/07 04:45:23;;;;;;;5.20;3.53;;;3.40;93.00;;;;;;936414;152;27361;-72
2022/01/07 04:47:50;;;;;;;5.53;4.30;;;3.40;92.90;;;;;;945189;149;27293;-71
2022/01/07 04:50:16;;;;;;;6.83;4.03;;;3.40;92.90;;;;;;954489;149;27329;-72
2022/01/07 04:52:46;;;;;;;6.27;4.43;;;3.40;92.90;;;;;;937632;151;27355;-71
2022/01/07 04:55:15;;;;;;;5.43;3.77;;;3.50;92.90;;;;;;942494;150;27383;-70
2022/01/07 04:57:42;;;;;;;5.70;4.07;;;3.50;92.90;;;;;;943961;151;27341;-71
2022/01/07 05:00:08;;;;;;;8.73;4.23;;;3.50;92.90;;;;;;945464;151;27438;-70
2022/01/07 05:02:35;;;;;;;5.40;4.07;;;3.50;92.90;;;;;;938302;151;27321;-70
2022/01/07 05:05:01;;;;;;;5.73;3.80;;;3.60;92.90;;;;;;938248;149;27394;-71
2022/01/07 05:07:30;;;;;;;6.33;4.17;;;3.60;92.50;;;;;;944732;149;27299;-70
2022/01/07 05:09:57;;;;;;;4.83;4.03;;;3.60;92.90;;;;;;949276;149;27353;-71
2022/01/07 05:12:23;;;;;;;5.73;4.17;;;3.60;92.80;;;;;;943967;149;27458;-72
2022/01/07 05:14:50;;;;;;;8.00;4.40;;;3.70;92.90;;;;;;948166;149;27392;-71
2022/01/07 05:17:17;;;;;;;7.17;4.00;;;3.70;92.80;;;;;;936949;151;27355;-70
2022/01/07 05:19:46;;;;;;;4.77;4.13;;;3.70;92.80;;;;;;940224;149;27297;-71
2022/01/07 05:22:13;;;;;;;6.53;4.40;;;3.70;92.80;;;;;;952934;149;27323;-70
2022/01/07 05:24:39;;;;;;;5.00;3.73;;;3.70;92.80;;;;;;951402;149;27301;-71
2022/01/07 05:27:08;;;;;;;8.30;3.97;;;3.70;92.90;;;;;;945290;149;27349;-72
2022/01/07 05:29:35;;;;;;;8.93;4.43;;;3.70;92.90;;;;;;948201;149;27377;-70
2022/01/07 05:32:02;;;;;;;7.97;4.53;;;3.80;92.90;;;;;;952366;149;27330;-70
2022/01/07 05:34:28;;;;;;;8.20;4.63;;;3.80;93.00;;;;;;947293;149;27347;-72
2022/01/07 05:36:55;;;;;;;7.77;4.30;;;3.80;93.10;;;;;;945523;149;27322;-71
2022/01/07 05:39:21;;;;;;;5.27;4.00;;;3.80;93.10;;;;;;946232;149;27316;-70
2022/01/07 05:41:48;;;;;;;5.10;4.10;;;3.90;93.10;;;;;;954908;149;27232;-71
2022/01/07 05:44:15;;;;;;;5.07;4.00;;;3.90;93.10;;;;;;949368;149;27344;-73
2022/01/07 05:46:47;;;;;;;5.17;4.37;;;3.90;93.10;;;;;;939439;149;27351;-72
2022/01/07 05:49:14;;;;;;;5.93;4.40;;;3.90;93.20;;;;;;941537;149;27487;-70
2022/01/07 05:51:41;;;;;;;6.77;4.73;;;4.00;93.10;;;;;;941624;149;27813;-71
2022/01/07 05:54:07;;;;;;;7.40;4.47;;;4.00;93.10;;;;;;947594;149;27456;-72
2022/01/07 05:56:33;;;;;;;4.50;4.10;;;4.10;93.10;;;;;;954437;149;27419;-72
2022/01/07 05:59:00;;;;;;;6.23;3.97;;;4.10;93.00;;;;;;938537;151;27431;-70
2022/01/07 06:01:27;;;;;;;6.07;4.80;;;4.10;93.00;;;;;;936430;151;27291;-71
2022/01/07 06:03:53;;;;;;;5.53;4.77;;;4.10;93.00;;;;;;941390;149;27370;-72
2022/01/07 06:06:20;;;;;;;5.80;4.43;;;4.20;93.00;;;;;;941427;151;27432;-73
2022/01/07 06:08:46;;;;;;;6.53;4.90;;;4.20;93.00;;;;;;933147;152;27372;-71
2022/01/07 06:11:13;;;;;;;6.17;4.53;;;4.20;93.10;;;;;;929250;152;27369;-71
2022/01/07 06:13:40;;;;;;;5.33;4.83;;;4.20;93.20;;;;;;938735;151;27292;-70
2022/01/07 06:16:06;;;;;;;9.47;5.00;;;4.20;93.10;;;;;;943417;151;28919;-71
2022/01/07 06:18:33;;;;;;;6.90;5.13;;;4.20;93.10;;;;;;934202;152;27439;-71
2022/01/07 06:20:59;;;;;;;6.33;4.67;;;4.30;93.20;;;;;;934527;151;27297;-72
2022/01/07 06:23:26;;;;;;;6.97;4.83;;;4.30;93.20;;;;;;944828;151;27328;-73
2022/01/07 06:25:52;;;;;;;10.87;7.13;;;4.40;93.20;;;;;;938527;151;27334;-72
2022/01/07 06:28:19;;;;;;;7.83;6.27;;;4.40;93.20;;;;;;937226;151;27340;-71
2022/01/07 06:30:46;;;;;;;8.10;6.00;;;4.50;93.20;;;;;;938220;151;27351;-73
2022/01/07 06:33:12;;;;;;;10.33;5.07;;;4.50;93.10;;;;;;937890;151;27376;-72
2022/01/07 06:35:39;;;;;;;7.17;5.17;;;4.50;93.10;;;;;;941925;151;27334;-73
2022/01/07 06:38:05;;;;;;;6.57;4.30;;;4.60;93.00;;;;;;937649;151;27440;-72
2022/01/07 06:40:32;;;;;;;6.23;4.67;;;4.60;93.00;;;;;;943277;151;27669;-73
2022/01/07 06:42:59;;;;;;;7.53;5.53;;;4.60;92.90;;;;;;940070;150;27332;-71
2022/01/07 06:45:25;;;;;;;6.53;4.67;;;4.70;92.90;;;;;;938426;151;27390;-71
2022/01/07 06:47:52;;;;;;;5.13;4.60;;;4.70;92.90;;;;;;941916;151;27419;-73
2022/01/07 06:50:21;;;;;;;6.83;4.80;;;4.70;92.80;;;;;;938194;151;27809;-75
2022/01/07 06:52:48;;;;;;;7.57;5.77;;;4.70;92.70;;;;;;941964;150;27340;-72
2022/01/07 06:55:14;;;;;;;6.27;5.17;;;4.80;92.70;;;;;;938283;150;27345;-71
2022/01/07 06:57:41;;;;;;;7.13;5.47;;;4.80;92.70;;;;;;933569;151;27356;-73
2022/01/07 07:00:07;;;;;;;5.77;5.17;;;4.80;92.70;;;;;;935985;151;27452;-72
2022/01/07 07:02:34;;;;;;;6.20;5.57;;;4.90;92.60;;;;;;939998;151;27279;-72
2022/01/07 07:05:01;;;;;;;5.00;4.50;;;4.90;92.60;;;;;;933690;151;28250;-73
2022/01/07 07:07:27;;;;;;;7.47;6.07;;;4.90;92.20;;;;;;937653;149;27439;-73
2022/01/07 07:09:54;;;;;;;7.47;5.57;;;4.90;92.50;;;;;;931673;151;27285;-72
2022/01/07 07:12:20;;;;;;;5.30;4.67;;;4.90;92.50;;;;;;935577;151;27439;-71
2022/01/07 07:14:47;;;;;;;5.40;4.90;;;5.00;92.50;;;;;;941969;149;27446;-72
2022/01/07 07:17:14;;;;;;;7.83;4.87;;;5.00;92.40;;;;;;936115;149;27343;-71
2022/01/07 07:19:40;;;;;;;7.97;5.17;;;5.00;92.50;;;;;;938130;149;27322;-71
2022/01/07 07:22:07;;;;;;;7.50;5.30;;;5.10;92.50;;;;;;939248;149;27287;-72
2022/01/07 07:24:36;;;;;;;6.33;4.43;;;5.10;92.40;;;;;;941531;149;27410;-72
2022/01/07 07:27:05;;;;;;;5.53;4.80;;;5.10;92.40;;;;;;940034;149;27345;-72
2022/01/07 07:29:32;;;;;;;7.07;4.83;;;5.20;92.30;;;;;;937838;151;27430;-72
2022/01/07 07:34:43;;;;;;;5.03;4.53;;;5.20;92.30;;;;;;978058;145;36782;-72
2022/01/07 07:36:46;;;;;;;6.53;4.33;;;5.30;92.10;;;;;;947010;149;27449;-71
2022/01/07 07:39:13;;;;;;;5.57;4.30;;;5.30;92.00;;;;;;949262;149;27412;-72
2022/01/07 07:41:39;;;;;;;7.27;4.43;;;5.30;92.20;;;;;;954727;149;27261;-72
2022/01/07 07:44:06;;;;;;;5.47;4.37;;;5.40;92.00;;;;;;970604;145;27390;-72
2022/01/07 07:46:32;;;;;;;6.23;4.43;;;5.40;92.00;;;;;;951274;145;27391;-71
2022/01/07 07:49:00;;;;;;;6.23;4.80;;;5.40;91.90;;;;;;959350;149;27364;-70
2022/01/07 07:51:26;;;;;;;7.60;4.83;;;5.40;91.90;;;;;;956385;149;28745;-70
2022/01/07 07:53:52;;;;;;;5.50;4.30;;;5.50;91.90;;;;;;958335;149;27286;-72
2022/01/07 07:56:19;;;;;;;5.30;4.27;;;5.50;91.80;;;;;;957937;147;27292;-71
2022/01/07 07:58:45;;;;;;;5.67;4.50;;;5.50;91.80;;;;;;961891;149;27313;-72
2022/01/07 08:01:14;;;;;;;6.57;4.67;;;5.60;91.70;;;;;;959484;149;27265;-71
2022/01/07 08:03:41;;;;;;;4.97;4.57;;;5.60;91.70;;;;;;952062;149;27340;-72
2022/01/07 08:06:08;;;;;;;4.77;4.20;;;5.60;91.60;;;;;;954281;148;27801;-72
2022/01/07 08:08:34;;;;;;;5.03;4.40;;;5.60;91.60;;;;;;957957;148;27334;-72
2022/01/07 08:11:06;;;;;;;4.80;4.27;;;5.60;91.60;;;;;;959350;146;27428;-72
2022/01/07 08:13:31;;;;;;;4.17;3.70;;;5.60;91.60;;;;;;951429;149;27287;-73
2022/01/07 08:16:04;;;;;;;5.07;4.40;;;5.60;91.60;;;;;;951911;149;27337;-71
2022/01/07 08:18:32;;;;;;;5.30;4.13;;;5.60;91.70;;;;;;950961;149;27377;-72
2022/01/07 08:21:07;;;;;;;5.67;4.10;;;5.60;91.70;;;;;;954764;149;27204;-72
2022/01/07 08:23:34;;;;;;;5.27;4.23;;;5.60;91.70;;;;;;958622;148;27266;-72
2022/01/07 08:26:01;;;;;;;6.40;4.17;;;5.50;91.70;;;;;;955813;147;27365;-71
2022/01/07 08:28:33;;;;;;;6.43;4.30;;;5.50;91.70;;;;;;961565;149;27222;-71
2022/01/07 08:31:12;;;;;;;6.27;4.47;;;5.50;91.80;;;;;;950949;149;27322;-71
2022/01/07 08:36:14;;;;;;;5.87;4.10;;;5.50;91.90;;;;;;950436;148;27371;-72
2022/01/07 08:38:40;;;;;;;5.00;3.57;;;5.50;91.80;;;;;;952279;147;27436;-71
2022/01/07 08:41:07;;;;;;;4.93;4.30;;;5.50;91.90;;;;;;949632;150;27329;-71
2022/01/07 08:43:34;;;;;;;5.33;3.67;;;5.50;91.90;;;;;;955822;146;27306;-73
2022/01/07 08:46:00;;;;;;;7.17;4.20;;;5.40;91.90;;;;;;950463;146;27429;-71
2022/01/07 08:48:27;;;;;;;4.90;3.90;;;5.40;92.00;;;;;;947129;150;27299;-72
2022/01/07 08:50:53;;;;;;;6.50;4.03;;;5.40;92.40;;;;;;951569;150;27291;-71
2022/01/07 08:53:23;;;;;;;4.90;3.60;;;5.40;92.10;;;;;;954687;147;27812;-72
2022/01/07 08:55:49;;;;;;;6.20;3.73;;;5.40;92.10;;;;;;946071;148;27356;-71
2022/01/07 08:58:16;;;;;;;4.00;3.57;;;5.40;92.10;;;;;;947103;150;27279;-72
2022/01/07 09:00:42;;;;;;;6.57;3.70;;;5.40;92.20;;;;;;950868;149;27419;-73
2022/01/07 09:03:09;;;;;;;3.97;3.47;;;5.40;92.20;;;;;;954332;147;27402;-71
2022/01/07 09:05:36;;;;;;;5.63;3.57;;;5.40;92.20;;;;;;946777;150;27343;-71
2022/01/07 09:08:14;;;;;;;5.63;3.70;;;5.40;92.20;;;;;;944432;149;27303;-74
2022/01/07 09:10:32;;;;;;;5.47;4.07;;;5.40;92.30;;;;;;946842;149;27427;-72
2022/01/07 09:12:58;;;;;;;4.67;3.50;;;5.40;92.60;;;;;;948997;147;27730;-73
2022/01/07 09:15:25;;;;;;;6.57;3.93;;;5.40;92.50;;;;;;952164;145;27370;-71
2022/01/07 09:17:52;;;;;;;4.17;3.73;;;5.40;92.50;;;;;;947147;146;27322;-71
2022/01/07 09:20:20;;;;;;;4.27;3.40;;;5.40;92.50;;;;;;950162;148;27306;-73
2022/01/07 09:22:47;;;;;;;5.73;3.70;;;5.40;92.50;;;;;;934555;148;27424;-72
2022/01/07 09:25:14;;;;;;;4.00;3.37;;;5.40;92.50;;;;;;947753;145;27344;-74
2022/01/07 09:27:41;;;;;;;4.37;3.70;;;5.40;92.50;;;;;;950546;149;27681;-71
2022/01/07 09:30:07;;;;;;;3.83;3.10;;;5.40;92.70;;;;;;951298;147;27326;-72
2022/01/07 09:32:33;;;;;;;4.33;3.27;;;5.50;92.70;;;;;;952083;147;27344;-72
2022/01/07 09:35:03;;;;;;;3.73;3.30;;;5.50;92.80;;;;;;947603;147;27361;-72
2022/01/07 09:37:30;;;;;;;4.60;3.10;;;5.50;92.80;;;;;;953646;147;27912;-71
2022/01/07 09:39:56;;;;;;;3.60;3.23;;;5.50;92.80;;;;;;957467;147;27281;-70
2022/01/07 09:42:23;;;;;;;5.20;3.53;;;5.50;92.80;;;;;;956439;146;27389;-70
2022/01/07 09:44:49;;;;;;;6.10;3.43;;;5.60;92.80;;;;;;947054;147;27431;-74
2022/01/07 09:47:17;;;;;;;5.10;3.60;;;5.60;92.80;;;;;;949345;147;27305;-72
2022/01/07 09:49:43;;;;;;;4.33;3.60;;;5.60;92.80;;;;;;952078;147;27219;-73
2022/01/07 09:52:09;;;;;;;4.93;3.57;;;5.60;92.80;;;;;;944200;152;27254;-71
2022/01/07 09:54:36;;;;;;;7.83;3.70;;;5.70;92.90;;;;;;971865;147;27391;-72
2022/01/07 09:57:02;;;;;;;5.73;3.70;;;5.70;92.90;;;;;;962909;147;27291;-72
2022/01/07 09:59:29;;;;;;;4.37;3.97;;;5.70;92.80;;;;;;951491;149;27320;-71
2022/01/07 10:02:04;;;;;;;4.17;3.50;;;5.70;92.70;;;;;;948452;147;27309;-72
2022/01/07 10:04:40;;;;;;;3.33;2.97;;;5.80;92.80;;;;;;959557;147;27802;-71
2022/01/07 10:07:21;;;;;;;6.77;4.17;;;5.70;92.70;;;;;;962467;146;27456;-72
2022/01/07 10:10:06;;;;;;;4.37;3.67;;;5.80;92.70;;;;;;945846;147;27402;-70
2022/01/07 10:12:33;;;;;;;4.50;3.17;;;5.70;92.80;;;;;;958478;147;27383;-71
2022/01/07 10:15:11;;;;;;;4.17;3.17;;;5.80;92.80;;;;;;954941;147;27315;-70
2022/01/07 10:17:38;;;;;;;5.63;4.07;;;5.80;92.80;;;;;;949942;146;27285;-71
2022/01/07 10:20:04;;;;;;;4.60;3.77;;;5.80;92.80;;;;;;964829;147;27267;-72
2022/01/07 10:22:31;;;;;;;5.90;3.90;;;5.80;92.80;;;;;;947835;147;27486;-71
2022/01/07 10:24:58;;;;;;;5.87;4.30;;;5.80;92.70;;;;;;945028;149;27698;-71
2022/01/07 10:27:27;;;;;;;4.67;3.97;;;5.90;92.70;;;;;;957186;147;27303;-71
2022/01/07 10:29:54;;;;;;;5.50;3.90;;;5.90;92.60;;;;;;948552;149;27979;-72
2022/01/07 10:32:29;;;;;;;5.13;4.13;;;5.80;92.50;;;;;;951137;147;27313;-71
2022/01/07 10:35:05;;;;;;;5.57;3.87;;;5.80;92.40;;;;;;960897;147;27349;-71
2022/01/07 10:37:31;;;;;;;6.73;4.33;;;5.80;92.40;;;;;;945331;147;27311;-74
2022/01/07 10:39:58;;;;;;;5.60;4.17;;;5.80;92.40;;;;;;955451;147;27325;-75
2022/01/07 10:42:24;;;;;;;5.33;4.40;;;5.80;92.40;;;;;;952731;147;27301;-73
2022/01/07 10:45:00;;;;;;;7.00;4.23;;;5.80;92.50;;;;;;959854;147;27315;-71
2022/01/07 10:47:28;;;;;;;5.67;3.80;;;5.80;92.60;;;;;;966477;146;27267;-71
2022/01/07 10:50:12;;;;;;;4.40;3.67;;;5.80;92.60;;;;;;954895;149;27321;-72
2022/01/07 10:52:38;;;;;;;4.67;3.53;;;5.80;92.70;;;;;;951363;149;27338;-71
2022/01/07 10:55:11;;;;;;;5.40;4.00;;;5.80;92.70;;;;;;952739;147;27338;-71
2022/01/07 10:57:44;;;;;;;4.03;3.37;;;5.80;92.80;;;;;;961687;146;27383;-72
2022/01/07 11:00:07;;;;;;;5.20;3.40;;;5.80;92.80;;;;;;955571;147;27295;-71
2022/01/07 11:02:34;;;;;;;4.00;3.57;;;5.90;92.80;;;;;;958211;147;27881;-72
2022/01/07 11:05:00;;;;;;;6.57;3.93;;;5.90;92.80;;;;;;965107;147;27378;-71
2022/01/07 11:07:27;;;;;;;4.17;3.77;;;5.90;92.90;;;;;;956307;149;27394;-71
2022/01/07 11:09:53;;;;;;;4.53;3.50;;;5.90;93.10;;;;;;949955;147;27377;-71
2022/01/07 11:12:20;;;;;;;5.10;3.90;;;6.00;93.20;;;;;;950566;147;27325;-72
2022/01/07 11:14:47;;;;;;;3.97;3.53;;;6.00;93.20;;;;;;959550;146;27348;-72
2022/01/07 11:17:20;;;;;;;3.53;3.20;;;6.10;93.20;;;;;;955152;147;27440;-72
2022/01/07 11:19:40;;;;;;;4.77;3.50;;;6.10;93.10;;;;;;948415;147;27382;-71
2022/01/07 11:22:06;;;;;;;4.43;3.83;;;6.10;93.00;;;;;;958064;147;28810;-74
2022/01/07 11:24:36;;;;;;;4.27;3.87;;;6.20;93.40;;;;;;950013;147;27377;-73
2022/01/07 11:27:02;;;;;;;5.57;3.97;;;6.20;93.00;;;;;;947955;147;27427;-72
2022/01/07 11:29:29;;;;;;;7.23;4.43;;;6.20;92.90;;;;;;944800;147;27868;-72
2022/01/07 11:31:55;;;;;;;4.70;4.17;;;6.20;93.00;;;;;;943859;148;27797;-71
2022/01/07 11:34:25;;;;;;;8.57;4.67;;;6.30;93.00;;;;;;944070;148;27326;-72
2022/01/07 11:36:52;;;;;;;4.97;4.47;;;6.30;92.90;;;;;;936192;149;27412;-71
2022/01/07 11:39:18;;;;;;;4.23;3.80;;;6.30;92.80;;;;;;944587;149;27293;-72
2022/01/07 11:41:45;;;;;;;5.53;4.20;;;6.40;92.80;;;;;;946229;149;27486;-75
2022/01/07 11:44:11;;;;;;;6.03;4.60;;;6.40;92.70;;;;;;935167;152;27363;-72
2022/01/07 11:46:38;;;;;;;5.80;4.87;;;6.40;92.80;;;;;;934633;152;27399;-75
2022/01/07 11:49:05;;;;;;;4.93;4.17;;;6.40;92.80;;;;;;935201;152;27480;-71
2022/01/07 11:51:37;;;;;;;7.33;4.70;;;6.40;92.90;;;;;;936379;150;27327;-73
2022/01/07 11:54:03;;;;;;;5.67;4.27;;;6.50;92.80;;;;;;933105;152;28039;-72
2022/01/07 11:56:30;;;;;;;5.33;4.43;;;6.50;92.80;;;;;;935919;152;27317;-72
2022/01/07 11:58:57;;;;;;;5.90;4.50;;;6.50;92.80;;;;;;929814;152;27265;-71
2022/01/07 12:01:29;;;;;;;6.40;3.90;;;6.50;92.70;;;;;;939021;150;27341;-73
2022/01/07 12:03:58;;;;;;;5.10;4.23;;;6.60;92.70;;;;;;929452;152;27339;-72
2022/01/07 12:06:26;;;;;;;4.20;3.80;;;6.60;92.60;;;;;;937680;152;27310;-72
2022/01/07 12:08:57;;;;;;;5.83;4.23;;;6.60;92.50;;;;;;931043;152;27317;-72
2022/01/07 12:11:24;;;;;;;4.90;4.43;;;6.60;92.40;;;;;;934240;150;27318;-72
2022/01/07 12:13:50;;;;;;;8.27;4.20;;;6.60;92.30;;;;;;942108;152;27351;-71
2022/01/07 12:16:20;;;;;;;5.10;4.07;;;6.60;92.30;;;;;;930562;153;27478;-71
2022/01/07 12:18:46;;;;;;;5.40;4.20;;;6.60;92.10;;;;;;948269;149;27337;-72
2022/01/07 12:21:13;;;;;;;6.53;4.20;;;6.60;92.00;;;;;;948700;149;27411;-70
2022/01/07 12:23:41;;;;;;;4.97;4.00;;;6.60;92.00;;;;;;943043;150;27280;-71
2022/01/07 12:26:06;;;;;;;7.13;4.20;;;6.60;92.00;;;;;;935139;152;27301;-72
2022/01/07 12:28:36;;;;;;;4.80;3.40;;;6.60;92.00;;;;;;937077;150;27331;-70
2022/01/07 12:31:11;;;;;;;4.13;3.57;;;6.50;91.90;;;;;;945450;150;27314;-71
2022/01/07 12:33:39;;;;;;;3.63;3.33;;;6.50;92.00;;;;;;927152;152;27776;-70
2022/01/07 12:36:04;;;;;;;5.90;3.77;;;6.50;92.10;;;;;;957779;145;27434;-71
2022/01/07 12:38:33;;;;;;;3.73;3.20;;;6.50;92.10;;;;;;964000;145;27806;-73
2022/01/07 12:41:01;;;;;;;6.10;3.53;;;6.50;92.10;;;;;;978991;145;27404;-71
2022/01/07 12:43:29;;;;;;;3.73;3.33;;;6.50;92.10;;;;;;951831;148;27427;-72
2022/01/07 12:45:59;;;;;;;3.80;3.47;;;6.50;92.10;;;;;;963285;148;27343;-70
2022/01/07 12:48:34;;;;;;;4.27;3.60;;;6.50;92.10;;;;;;971545;145;27400;-70
2022/01/07 12:51:01;;;;;;;4.30;3.17;;;6.60;92.20;;;;;;976041;145;27851;-71
2022/01/07 12:53:27;;;;;;;3.77;3.40;;;6.50;92.20;;;;;;973308;145;27372;-71
2022/01/07 12:55:54;;;;;;;3.63;2.97;;;6.50;92.20;;;;;;970735;145;27288;-72
2022/01/07 12:58:26;;;;;;;4.17;3.47;;;6.50;92.10;;;;;;977471;143;27358;-72
2022/01/07 13:00:56;;;;;;;4.27;3.40;;;6.60;92.20;;;;;;960317;147;28917;-70
2022/01/07 13:03:25;;;;;;;3.43;3.00;;;6.60;92.20;;;;;;958383;148;27301;-71